sensor_id;sensor_type;location;lat;lon;timestamp;P1;durP1;ratioP1;P2;durP2;ratioP2
12910;SDS011;6523;49.758;6.120;2022-12-18T00:01:32;19.67;;;10.80;;
12910;SDS011;6523;49.758;6.120;2022-12-18T00:04:00;21.23;;;10.43;;
12910;SDS011;6523;49.758;6.120;2022-12-18T00:06:28;15.70;;;8.90;;
12910;SDS011;6523;49.758;6.120;2022-12-18T00:08:55;14.83;;;9.00;;
12910;SDS011;6523;49.758;6.120;2022-12-18T00:11:22;15.17;;;7.97;;
12910;SDS011;6523;49.758;6.120;2022-12-18T00:13:50;18.37;;;9.67;;
12910;SDS011;6523;49.758;6.120;2022-12-18T00:16:17;16.67;;;8.43;;
12910;SDS011;6523;49.758;6.120;2022-12-18T00:18:45;18.37;;;9.87;;
12910;SDS011;6523;49.758;6.120;2022-12-18T00:21:11;14.93;;;8.00;;
12910;SDS011;6523;49.758;6.120;2022-12-18T00:23:39;17.70;;;9.40;;
12910;SDS011;6523;49.758;6.120;2022-12-18T00:26:06;17.57;;;8.83;;
12910;SDS011;6523;49.758;6.120;2022-12-18T00:28:36;19.17;;;9.73;;
12910;SDS011;6523;49.758;6.120;2022-12-18T00:31:05;20.20;;;9.90;;
12910;SDS011;6523;49.758;6.120;2022-12-18T00:33:32;19.67;;;9.73;;
12910;SDS011;6523;49.758;6.120;2022-12-18T00:36:01;12.57;;;7.37;;
12910;SDS011;6523;49.758;6.120;2022-12-18T00:38:31;17.23;;;7.60;;
12910;SDS011;6523;49.758;6.120;2022-12-18T00:40:57;12.77;;;7.43;;
12910;SDS011;6523;49.758;6.120;2022-12-18T00:43:23;15.33;;;8.33;;
12910;SDS011;6523;49.758;6.120;2022-12-18T00:45:49;13.93;;;8.93;;
12910;SDS011;6523;49.758;6.120;2022-12-18T00:48:14;13.50;;;7.63;;
12910;SDS011;6523;49.758;6.120;2022-12-18T00:50:40;17.73;;;9.57;;
12910;SDS011;6523;49.758;6.120;2022-12-18T00:53:05;12.03;;;6.83;;
12910;SDS011;6523;49.758;6.120;2022-12-18T00:55:38;16.27;;;7.67;;
12910;SDS011;6523;49.758;6.120;2022-12-18T00:58:05;14.80;;;9.20;;
12910;SDS011;6523;49.758;6.120;2022-12-18T01:00:32;30.53;;;13.30;;
12910;SDS011;6523;49.758;6.120;2022-12-18T01:02:57;24.67;;;13.17;;
12910;SDS011;6523;49.758;6.120;2022-12-18T01:05:23;28.70;;;15.23;;
12910;SDS011;6523;49.758;6.120;2022-12-18T01:07:49;19.57;;;11.47;;
12910;SDS011;6523;49.758;6.120;2022-12-18T01:10:14;22.77;;;13.73;;
12910;SDS011;6523;49.758;6.120;2022-12-18T01:12:41;28.27;;;14.10;;
12910;SDS011;6523;49.758;6.120;2022-12-18T01:15:07;27.30;;;13.90;;
12910;SDS011;6523;49.758;6.120;2022-12-18T01:17:34;23.87;;;13.13;;
12910;SDS011;6523;49.758;6.120;2022-12-18T01:19:59;34.43;;;15.23;;
12910;SDS011;6523;49.758;6.120;2022-12-18T01:22:25;24.00;;;12.20;;
12910;SDS011;6523;49.758;6.120;2022-12-18T01:24:51;22.50;;;12.53;;
12910;SDS011;6523;49.758;6.120;2022-12-18T01:27:16;21.47;;;11.07;;
12910;SDS011;6523;49.758;6.120;2022-12-18T01:29:42;20.97;;;11.57;;
12910;SDS011;6523;49.758;6.120;2022-12-18T01:32:07;20.37;;;11.10;;
12910;SDS011;6523;49.758;6.120;2022-12-18T01:34:34;24.73;;;12.00;;
12910;SDS011;6523;49.758;6.120;2022-12-18T01:37:02;21.97;;;11.60;;
12910;SDS011;6523;49.758;6.120;2022-12-18T01:39:28;28.17;;;12.10;;
12910;SDS011;6523;49.758;6.120;2022-12-18T01:41:53;25.40;;;11.90;;
12910;SDS011;6523;49.758;6.120;2022-12-18T01:50:24;22.10;;;10.80;;
12910;SDS011;6523;49.758;6.120;2022-12-18T01:53:15;16.43;;;10.13;;
12910;SDS011;6523;49.758;6.120;2022-12-18T01:55:52;16.53;;;9.23;;
12910;SDS011;6523;49.758;6.120;2022-12-18T01:58:21;14.63;;;8.70;;
12910;SDS011;6523;49.758;6.120;2022-12-18T02:00:52;20.40;;;10.03;;
12910;SDS011;6523;49.758;6.120;2022-12-18T02:03:19;19.40;;;9.40;;
12910;SDS011;6523;49.758;6.120;2022-12-18T02:05:47;21.47;;;11.60;;
12910;SDS011;6523;49.758;6.120;2022-12-18T02:08:42;18.77;;;9.20;;
12910;SDS011;6523;49.758;6.120;2022-12-18T02:16:40;16.83;;;8.37;;
12910;SDS011;6523;49.758;6.120;2022-12-18T02:22:03;12.87;;;9.03;;
12910;SDS011;6523;49.758;6.120;2022-12-18T02:27:09;17.13;;;7.60;;
12910;SDS011;6523;49.758;6.120;2022-12-18T02:29:40;19.00;;;9.37;;
12910;SDS011;6523;49.758;6.120;2022-12-18T02:32:09;15.60;;;8.70;;
12910;SDS011;6523;49.758;6.120;2022-12-18T02:34:38;17.30;;;9.10;;
12910;SDS011;6523;49.758;6.120;2022-12-18T02:37:06;16.60;;;9.43;;
12910;SDS011;6523;49.758;6.120;2022-12-18T02:39:36;14.70;;;9.57;;
12910;SDS011;6523;49.758;6.120;2022-12-18T02:42:03;19.43;;;11.20;;
12910;SDS011;6523;49.758;6.120;2022-12-18T02:44:33;18.93;;;10.00;;
12910;SDS011;6523;49.758;6.120;2022-12-18T02:47:00;19.13;;;9.53;;
12910;SDS011;6523;49.758;6.120;2022-12-18T02:57:50;20.10;;;9.63;;
12910;SDS011;6523;49.758;6.120;2022-12-18T03:01:03;22.50;;;11.03;;
12910;SDS011;6523;49.758;6.120;2022-12-18T03:03:22;25.20;;;11.93;;
12910;SDS011;6523;49.758;6.120;2022-12-18T03:05:53;25.70;;;12.20;;
12910;SDS011;6523;49.758;6.120;2022-12-18T03:08:31;29.73;;;14.27;;
12910;SDS011;6523;49.758;6.120;2022-12-18T03:11:02;24.43;;;14.03;;
12910;SDS011;6523;49.758;6.120;2022-12-18T03:13:33;29.83;;;14.87;;
12910;SDS011;6523;49.758;6.120;2022-12-18T03:16:02;38.30;;;15.67;;
12910;SDS011;6523;49.758;6.120;2022-12-18T03:18:35;21.80;;;13.47;;
12910;SDS011;6523;49.758;6.120;2022-12-18T03:21:11;25.43;;;13.50;;
12910;SDS011;6523;49.758;6.120;2022-12-18T03:23:40;29.07;;;14.27;;
12910;SDS011;6523;49.758;6.120;2022-12-18T03:26:11;24.37;;;11.27;;
12910;SDS011;6523;49.758;6.120;2022-12-18T03:28:42;27.83;;;14.37;;
12910;SDS011;6523;49.758;6.120;2022-12-18T03:31:11;22.10;;;13.07;;
12910;SDS011;6523;49.758;6.120;2022-12-18T03:33:45;20.47;;;12.20;;
12910;SDS011;6523;49.758;6.120;2022-12-18T03:36:17;22.37;;;10.87;;
12910;SDS011;6523;49.758;6.120;2022-12-18T03:38:43;18.23;;;10.43;;
12910;SDS011;6523;49.758;6.120;2022-12-18T03:41:19;13.33;;;7.47;;
12910;SDS011;6523;49.758;6.120;2022-12-18T03:47:03;13.43;;;7.33;;
12910;SDS011;6523;49.758;6.120;2022-12-18T03:49:44;10.90;;;7.60;;
12910;SDS011;6523;49.758;6.120;2022-12-18T03:52:25;12.13;;;7.33;;
12910;SDS011;6523;49.758;6.120;2022-12-18T03:54:55;18.60;;;8.70;;
12910;SDS011;6523;49.758;6.120;2022-12-18T03:57:23;9.23;;;5.27;;
12910;SDS011;6523;49.758;6.120;2022-12-18T03:59:55;16.87;;;7.63;;
12910;SDS011;6523;49.758;6.120;2022-12-18T04:02:24;13.83;;;6.50;;
12910;SDS011;6523;49.758;6.120;2022-12-18T04:04:53;15.77;;;8.90;;
12910;SDS011;6523;49.758;6.120;2022-12-18T04:07:23;21.53;;;10.40;;
12910;SDS011;6523;49.758;6.120;2022-12-18T04:09:50;26.03;;;13.50;;
12910;SDS011;6523;49.758;6.120;2022-12-18T04:12:20;26.40;;;11.67;;
12910;SDS011;6523;49.758;6.120;2022-12-18T04:14:46;23.50;;;12.17;;
12910;SDS011;6523;49.758;6.120;2022-12-18T04:17:11;24.00;;;11.90;;
12910;SDS011;6523;49.758;6.120;2022-12-18T04:19:37;22.97;;;11.23;;
12910;SDS011;6523;49.758;6.120;2022-12-18T04:22:02;21.93;;;12.27;;
12910;SDS011;6523;49.758;6.120;2022-12-18T04:24:28;20.97;;;10.90;;
12910;SDS011;6523;49.758;6.120;2022-12-18T04:26:53;26.53;;;13.70;;
12910;SDS011;6523;49.758;6.120;2022-12-18T04:29:19;21.73;;;11.97;;
12910;SDS011;6523;49.758;6.120;2022-12-18T04:31:44;23.03;;;11.10;;
12910;SDS011;6523;49.758;6.120;2022-12-18T04:34:10;14.43;;;8.13;;
12910;SDS011;6523;49.758;6.120;2022-12-18T04:36:36;17.00;;;10.07;;
12910;SDS011;6523;49.758;6.120;2022-12-18T04:39:01;19.27;;;8.10;;
12910;SDS011;6523;49.758;6.120;2022-12-18T04:41:27;19.60;;;8.83;;
12910;SDS011;6523;49.758;6.120;2022-12-18T04:43:53;20.13;;;9.13;;
12910;SDS011;6523;49.758;6.120;2022-12-18T04:46:18;18.70;;;9.30;;
12910;SDS011;6523;49.758;6.120;2022-12-18T04:48:45;33.83;;;14.50;;
12910;SDS011;6523;49.758;6.120;2022-12-18T04:51:11;32.23;;;18.60;;
12910;SDS011;6523;49.758;6.120;2022-12-18T04:53:37;27.53;;;13.43;;
12910;SDS011;6523;49.758;6.120;2022-12-18T04:58:29;22.97;;;12.30;;
12910;SDS011;6523;49.758;6.120;2022-12-18T05:00:54;20.00;;;11.93;;
12910;SDS011;6523;49.758;6.120;2022-12-18T05:03:20;26.57;;;12.80;;
12910;SDS011;6523;49.758;6.120;2022-12-18T05:05:48;20.47;;;11.00;;
12910;SDS011;6523;49.758;6.120;2022-12-18T05:08:15;15.97;;;10.17;;
12910;SDS011;6523;49.758;6.120;2022-12-18T05:10:40;17.57;;;9.43;;
12910;SDS011;6523;49.758;6.120;2022-12-18T05:13:06;21.03;;;10.73;;
12910;SDS011;6523;49.758;6.120;2022-12-18T05:15:32;15.03;;;7.83;;
12910;SDS011;6523;49.758;6.120;2022-12-18T05:17:59;15.60;;;9.03;;
12910;SDS011;6523;49.758;6.120;2022-12-18T05:20:25;19.50;;;10.47;;
12910;SDS011;6523;49.758;6.120;2022-12-18T05:22:51;15.20;;;8.83;;
12910;SDS011;6523;49.758;6.120;2022-12-18T05:25:17;16.03;;;10.37;;
12910;SDS011;6523;49.758;6.120;2022-12-18T05:27:44;20.57;;;8.87;;
12910;SDS011;6523;49.758;6.120;2022-12-18T05:30:10;19.43;;;9.23;;
12910;SDS011;6523;49.758;6.120;2022-12-18T05:32:36;14.97;;;7.83;;
12910;SDS011;6523;49.758;6.120;2022-12-18T05:35:02;13.53;;;7.90;;
12910;SDS011;6523;49.758;6.120;2022-12-18T05:37:29;15.70;;;8.03;;
12910;SDS011;6523;49.758;6.120;2022-12-18T05:39:54;13.30;;;8.17;;
12910;SDS011;6523;49.758;6.120;2022-12-18T05:42:20;17.67;;;9.83;;
12910;SDS011;6523;49.758;6.120;2022-12-18T05:44:45;11.57;;;7.70;;
12910;SDS011;6523;49.758;6.120;2022-12-18T05:47:11;19.13;;;8.90;;
12910;SDS011;6523;49.758;6.120;2022-12-18T05:49:36;14.43;;;9.00;;
12910;SDS011;6523;49.758;6.120;2022-12-18T05:52:02;14.30;;;8.37;;
12910;SDS011;6523;49.758;6.120;2022-12-18T05:54:28;19.53;;;8.77;;
12910;SDS011;6523;49.758;6.120;2022-12-18T05:56:53;14.10;;;8.20;;
12910;SDS011;6523;49.758;6.120;2022-12-18T05:59:19;15.37;;;8.30;;
12910;SDS011;6523;49.758;6.120;2022-12-18T06:01:45;13.60;;;7.50;;
12910;SDS011;6523;49.758;6.120;2022-12-18T06:04:11;12.53;;;8.03;;
12910;SDS011;6523;49.758;6.120;2022-12-18T06:06:37;12.87;;;7.07;;
12910;SDS011;6523;49.758;6.120;2022-12-18T06:09:02;12.93;;;7.53;;
12910;SDS011;6523;49.758;6.120;2022-12-18T06:11:33;15.37;;;8.57;;
12910;SDS011;6523;49.758;6.120;2022-12-18T06:13:59;17.17;;;8.07;;
12910;SDS011;6523;49.758;6.120;2022-12-18T06:16:26;16.77;;;7.93;;
12910;SDS011;6523;49.758;6.120;2022-12-18T06:18:52;14.17;;;7.50;;
12910;SDS011;6523;49.758;6.120;2022-12-18T06:21:21;15.73;;;8.90;;
12910;SDS011;6523;49.758;6.120;2022-12-18T06:23:46;10.73;;;7.13;;
12910;SDS011;6523;49.758;6.120;2022-12-18T06:26:12;13.37;;;7.13;;
12910;SDS011;6523;49.758;6.120;2022-12-18T06:28:38;17.83;;;8.43;;
12910;SDS011;6523;49.758;6.120;2022-12-18T06:31:05;19.03;;;9.27;;
12910;SDS011;6523;49.758;6.120;2022-12-18T06:33:31;15.00;;;9.80;;
12910;SDS011;6523;49.758;6.120;2022-12-18T06:36:04;18.03;;;10.33;;
12910;SDS011;6523;49.758;6.120;2022-12-18T06:38:32;23.43;;;12.17;;
12910;SDS011;6523;49.758;6.120;2022-12-18T06:40:58;19.30;;;10.27;;
12910;SDS011;6523;49.758;6.120;2022-12-18T06:43:24;29.87;;;12.30;;
12910;SDS011;6523;49.758;6.120;2022-12-18T06:45:50;27.23;;;11.47;;
12910;SDS011;6523;49.758;6.120;2022-12-18T06:48:20;27.47;;;10.93;;
12910;SDS011;6523;49.758;6.120;2022-12-18T06:50:46;18.17;;;9.77;;
12910;SDS011;6523;49.758;6.120;2022-12-18T06:53:12;19.60;;;10.57;;
12910;SDS011;6523;49.758;6.120;2022-12-18T06:55:37;17.10;;;9.07;;
12910;SDS011;6523;49.758;6.120;2022-12-18T06:58:03;13.37;;;8.13;;
12910;SDS011;6523;49.758;6.120;2022-12-18T07:00:28;17.07;;;8.30;;
12910;SDS011;6523;49.758;6.120;2022-12-18T07:02:54;18.20;;;9.37;;
12910;SDS011;6523;49.758;6.120;2022-12-18T07:05:20;14.00;;;8.73;;
12910;SDS011;6523;49.758;6.120;2022-12-18T07:07:45;13.77;;;7.93;;
12910;SDS011;6523;49.758;6.120;2022-12-18T07:10:11;17.27;;;7.70;;
12910;SDS011;6523;49.758;6.120;2022-12-18T07:12:36;10.27;;;6.53;;
12910;SDS011;6523;49.758;6.120;2022-12-18T07:15:02;12.37;;;7.10;;
12910;SDS011;6523;49.758;6.120;2022-12-18T07:17:28;9.00;;;5.50;;
12910;SDS011;6523;49.758;6.120;2022-12-18T07:19:54;11.23;;;6.80;;
12910;SDS011;6523;49.758;6.120;2022-12-18T07:22:20;10.43;;;6.40;;
12910;SDS011;6523;49.758;6.120;2022-12-18T07:24:46;9.63;;;5.87;;
12910;SDS011;6523;49.758;6.120;2022-12-18T07:27:11;9.83;;;6.20;;
12910;SDS011;6523;49.758;6.120;2022-12-18T07:29:37;10.50;;;6.10;;
12910;SDS011;6523;49.758;6.120;2022-12-18T07:32:02;11.33;;;6.37;;
12910;SDS011;6523;49.758;6.120;2022-12-18T07:34:28;10.57;;;5.83;;
12910;SDS011;6523;49.758;6.120;2022-12-18T07:36:53;17.43;;;9.57;;
12910;SDS011;6523;49.758;6.120;2022-12-18T07:39:19;15.67;;;9.07;;
12910;SDS011;6523;49.758;6.120;2022-12-18T07:41:44;13.73;;;9.13;;
12910;SDS011;6523;49.758;6.120;2022-12-18T07:44:33;13.33;;;9.23;;
12910;SDS011;6523;49.758;6.120;2022-12-18T07:46:58;13.67;;;8.77;;
12910;SDS011;6523;49.758;6.120;2022-12-18T07:49:24;20.40;;;10.20;;
12910;SDS011;6523;49.758;6.120;2022-12-18T07:51:49;19.70;;;9.93;;
12910;SDS011;6523;49.758;6.120;2022-12-18T07:54:15;16.77;;;8.77;;
12910;SDS011;6523;49.758;6.120;2022-12-18T07:56:41;12.70;;;8.10;;
12910;SDS011;6523;49.758;6.120;2022-12-18T07:59:06;14.50;;;7.57;;
12910;SDS011;6523;49.758;6.120;2022-12-18T08:01:32;20.10;;;8.40;;
12910;SDS011;6523;49.758;6.120;2022-12-18T08:03:59;15.00;;;7.97;;
12910;SDS011;6523;49.758;6.120;2022-12-18T08:06:24;13.40;;;7.77;;
12910;SDS011;6523;49.758;6.120;2022-12-18T08:08:51;15.57;;;8.20;;
12910;SDS011;6523;49.758;6.120;2022-12-18T08:11:17;17.57;;;9.13;;
12910;SDS011;6523;49.758;6.120;2022-12-18T08:13:43;18.00;;;8.07;;
12910;SDS011;6523;49.758;6.120;2022-12-18T08:16:08;17.20;;;9.03;;
12910;SDS011;6523;49.758;6.120;2022-12-18T08:18:34;13.87;;;8.97;;
12910;SDS011;6523;49.758;6.120;2022-12-18T08:21:12;13.07;;;8.33;;
12910;SDS011;6523;49.758;6.120;2022-12-18T08:23:40;14.10;;;8.70;;
12910;SDS011;6523;49.758;6.120;2022-12-18T08:26:06;12.63;;;8.37;;
12910;SDS011;6523;49.758;6.120;2022-12-18T08:28:32;15.30;;;10.20;;
12910;SDS011;6523;49.758;6.120;2022-12-18T08:30:58;15.50;;;8.93;;
12910;SDS011;6523;49.758;6.120;2022-12-18T08:33:24;13.13;;;8.73;;
12910;SDS011;6523;49.758;6.120;2022-12-18T08:35:51;16.43;;;9.30;;
12910;SDS011;6523;49.758;6.120;2022-12-18T08:38:16;17.13;;;8.63;;
12910;SDS011;6523;49.758;6.120;2022-12-18T08:40:42;14.47;;;8.67;;
12910;SDS011;6523;49.758;6.120;2022-12-18T08:43:09;14.57;;;8.50;;
12910;SDS011;6523;49.758;6.120;2022-12-18T08:45:54;12.50;;;8.33;;
12910;SDS011;6523;49.758;6.120;2022-12-18T08:48:20;12.97;;;7.80;;
12910;SDS011;6523;49.758;6.120;2022-12-18T08:50:55;15.77;;;9.27;;
12910;SDS011;6523;49.758;6.120;2022-12-18T08:53:22;16.27;;;8.37;;
12910;SDS011;6523;49.758;6.120;2022-12-18T08:55:50;18.23;;;9.63;;
12910;SDS011;6523;49.758;6.120;2022-12-18T08:58:15;13.50;;;8.60;;
12910;SDS011;6523;49.758;6.120;2022-12-18T09:00:41;15.30;;;8.23;;
12910;SDS011;6523;49.758;6.120;2022-12-18T09:03:17;16.40;;;9.80;;
12910;SDS011;6523;49.758;6.120;2022-12-18T09:05:43;16.67;;;9.60;;
12910;SDS011;6523;49.758;6.120;2022-12-18T09:08:11;16.03;;;10.13;;
12910;SDS011;6523;49.758;6.120;2022-12-18T09:10:45;17.77;;;10.10;;
12910;SDS011;6523;49.758;6.120;2022-12-18T09:13:12;17.23;;;10.73;;
12910;SDS011;6523;49.758;6.120;2022-12-18T09:15:41;22.13;;;10.30;;
12910;SDS011;6523;49.758;6.120;2022-12-18T09:18:07;15.23;;;9.33;;
12910;SDS011;6523;49.758;6.120;2022-12-18T09:20:34;19.57;;;10.87;;
12910;SDS011;6523;49.758;6.120;2022-12-18T09:23:00;20.80;;;11.23;;
12910;SDS011;6523;49.758;6.120;2022-12-18T09:25:26;17.47;;;11.33;;
12910;SDS011;6523;49.758;6.120;2022-12-18T09:27:56;18.07;;;10.37;;
12910;SDS011;6523;49.758;6.120;2022-12-18T09:30:22;19.63;;;10.57;;
12910;SDS011;6523;49.758;6.120;2022-12-18T09:32:47;21.93;;;10.70;;
12910;SDS011;6523;49.758;6.120;2022-12-18T09:35:13;19.50;;;10.43;;
12910;SDS011;6523;49.758;6.120;2022-12-18T09:37:39;17.00;;;9.93;;
12910;SDS011;6523;49.758;6.120;2022-12-18T09:40:09;17.40;;;10.07;;
12910;SDS011;6523;49.758;6.120;2022-12-18T09:42:44;17.37;;;10.30;;
12910;SDS011;6523;49.758;6.120;2022-12-18T09:45:13;19.33;;;10.13;;
12910;SDS011;6523;49.758;6.120;2022-12-18T09:47:41;23.40;;;10.43;;
12910;SDS011;6523;49.758;6.120;2022-12-18T09:50:20;20.50;;;10.73;;
12910;SDS011;6523;49.758;6.120;2022-12-18T09:52:57;20.37;;;10.37;;
12910;SDS011;6523;49.758;6.120;2022-12-18T09:55:31;16.83;;;9.77;;
12910;SDS011;6523;49.758;6.120;2022-12-18T10:00:57;17.27;;;11.20;;
12910;SDS011;6523;49.758;6.120;2022-12-18T10:03:23;21.87;;;12.73;;
12910;SDS011;6523;49.758;6.120;2022-12-18T10:05:58;22.77;;;11.50;;
12910;SDS011;6523;49.758;6.120;2022-12-18T10:11:09;21.43;;;12.97;;
12910;SDS011;6523;49.758;6.120;2022-12-18T10:13:54;54.17;;;28.07;;
12910;SDS011;6523;49.758;6.120;2022-12-18T10:21:30;30.03;;;17.30;;
12910;SDS011;6523;49.758;6.120;2022-12-18T10:24:25;25.23;;;15.53;;
12910;SDS011;6523;49.758;6.120;2022-12-18T10:27:24;26.57;;;15.27;;
12910;SDS011;6523;49.758;6.120;2022-12-18T10:29:50;29.00;;;16.50;;
12910;SDS011;6523;49.758;6.120;2022-12-18T10:32:17;34.90;;;17.57;;
12910;SDS011;6523;49.758;6.120;2022-12-18T10:34:48;28.37;;;16.77;;
12910;SDS011;6523;49.758;6.120;2022-12-18T10:37:16;26.37;;;14.27;;
12910;SDS011;6523;49.758;6.120;2022-12-18T10:39:44;28.00;;;15.30;;
12910;SDS011;6523;49.758;6.120;2022-12-18T10:42:14;26.80;;;14.83;;
12910;SDS011;6523;49.758;6.120;2022-12-18T10:44:43;29.00;;;17.07;;
12910;SDS011;6523;49.758;6.120;2022-12-18T10:47:11;36.03;;;17.60;;
12910;SDS011;6523;49.758;6.120;2022-12-18T10:49:42;34.47;;;17.33;;
12910;SDS011;6523;49.758;6.120;2022-12-18T10:52:15;51.60;;;28.80;;
12910;SDS011;6523;49.758;6.120;2022-12-18T10:54:52;44.53;;;23.70;;
12910;SDS011;6523;49.758;6.120;2022-12-18T10:57:31;33.40;;;19.33;;
12910;SDS011;6523;49.758;6.120;2022-12-18T10:59:58;34.60;;;18.47;;
12910;SDS011;6523;49.758;6.120;2022-12-18T11:02:37;37.50;;;19.10;;
12910;SDS011;6523;49.758;6.120;2022-12-18T11:05:22;34.80;;;19.33;;
12910;SDS011;6523;49.758;6.120;2022-12-18T11:07:50;41.07;;;22.23;;
12910;SDS011;6523;49.758;6.120;2022-12-18T11:10:19;40.83;;;24.23;;
12910;SDS011;6523;49.758;6.120;2022-12-18T11:12:46;40.63;;;21.60;;
12910;SDS011;6523;49.758;6.120;2022-12-18T11:15:46;30.13;;;19.53;;
12910;SDS011;6523;49.758;6.120;2022-12-18T11:20:56;28.83;;;15.80;;
12910;SDS011;6523;49.758;6.120;2022-12-18T11:23:31;40.73;;;23.60;;
12910;SDS011;6523;49.758;6.120;2022-12-18T11:25:58;35.10;;;18.73;;
12910;SDS011;6523;49.758;6.120;2022-12-18T11:28:34;34.17;;;19.93;;
12910;SDS011;6523;49.758;6.120;2022-12-18T11:33:50;32.50;;;19.70;;
12910;SDS011;6523;49.758;6.120;2022-12-18T11:36:45;42.17;;;23.10;;
12910;SDS011;6523;49.758;6.120;2022-12-18T11:39:13;37.87;;;22.40;;
12910;SDS011;6523;49.758;6.120;2022-12-18T11:42:02;35.57;;;19.13;;
12910;SDS011;6523;49.758;6.120;2022-12-18T11:44:44;36.97;;;19.87;;
12910;SDS011;6523;49.758;6.120;2022-12-18T11:50:00;38.37;;;21.63;;
12910;SDS011;6523;49.758;6.120;2022-12-18T11:52:28;35.73;;;19.23;;
12910;SDS011;6523;49.758;6.120;2022-12-18T11:55:05;35.20;;;20.33;;
12910;SDS011;6523;49.758;6.120;2022-12-18T11:57:56;30.90;;;17.70;;
12910;SDS011;6523;49.758;6.120;2022-12-18T12:00:42;27.73;;;16.60;;
12910;SDS011;6523;49.758;6.120;2022-12-18T12:03:27;30.90;;;17.17;;
12910;SDS011;6523;49.758;6.120;2022-12-18T12:09:17;30.53;;;18.00;;
12910;SDS011;6523;49.758;6.120;2022-12-18T12:14:57;30.77;;;16.27;;
12910;SDS011;6523;49.758;6.120;2022-12-18T12:20:42;33.70;;;17.53;;
12910;SDS011;6523;49.758;6.120;2022-12-18T12:26:18;28.97;;;16.70;;
12910;SDS011;6523;49.758;6.120;2022-12-18T12:40:54;28.57;;;16.87;;
12910;SDS011;6523;49.758;6.120;2022-12-18T12:43:55;30.20;;;17.73;;
12910;SDS011;6523;49.758;6.120;2022-12-18T12:46:23;29.07;;;16.53;;
12910;SDS011;6523;49.758;6.120;2022-12-18T12:48:58;28.30;;;16.37;;
12910;SDS011;6523;49.758;6.120;2022-12-18T12:51:40;31.73;;;17.03;;
12910;SDS011;6523;49.758;6.120;2022-12-18T12:54:11;35.40;;;18.10;;
12910;SDS011;6523;49.758;6.120;2022-12-18T12:56:54;29.60;;;16.23;;
12910;SDS011;6523;49.758;6.120;2022-12-18T12:59:31;35.50;;;18.37;;
12910;SDS011;6523;49.758;6.120;2022-12-18T13:05:25;29.77;;;16.83;;
12910;SDS011;6523;49.758;6.120;2022-12-18T13:08:04;31.07;;;17.97;;
12910;SDS011;6523;49.758;6.120;2022-12-18T13:10:33;28.07;;;17.23;;
12910;SDS011;6523;49.758;6.120;2022-12-18T13:13:05;32.60;;;18.00;;
12910;SDS011;6523;49.758;6.120;2022-12-18T13:15:43;33.17;;;18.17;;
12910;SDS011;6523;49.758;6.120;2022-12-18T13:20:45;35.07;;;18.23;;
12910;SDS011;6523;49.758;6.120;2022-12-18T13:25:52;37.43;;;19.43;;
12910;SDS011;6523;49.758;6.120;2022-12-18T13:30:48;35.93;;;18.83;;
12910;SDS011;6523;49.758;6.120;2022-12-18T13:36:00;36.93;;;20.17;;
12910;SDS011;6523;49.758;6.120;2022-12-18T13:38:34;33.10;;;19.73;;
12910;SDS011;6523;49.758;6.120;2022-12-18T13:43:56;39.93;;;20.63;;
12910;SDS011;6523;49.758;6.120;2022-12-18T13:46:46;36.07;;;20.07;;
12910;SDS011;6523;49.758;6.120;2022-12-18T13:51:39;38.57;;;20.90;;
12910;SDS011;6523;49.758;6.120;2022-12-18T13:56:59;34.47;;;19.43;;
12910;SDS011;6523;49.758;6.120;2022-12-18T13:59:26;41.63;;;20.63;;
12910;SDS011;6523;49.758;6.120;2022-12-18T14:02:00;36.03;;;19.80;;
12910;SDS011;6523;49.758;6.120;2022-12-18T14:04:37;34.57;;;20.00;;
12910;SDS011;6523;49.758;6.120;2022-12-18T14:07:04;33.17;;;19.90;;
12910;SDS011;6523;49.758;6.120;2022-12-18T14:09:51;28.47;;;16.50;;
12910;SDS011;6523;49.758;6.120;2022-12-18T14:12:20;34.17;;;19.37;;
12910;SDS011;6523;49.758;6.120;2022-12-18T14:15:54;37.50;;;20.13;;
12910;SDS011;6523;49.758;6.120;2022-12-18T14:20:41;37.80;;;20.47;;
12910;SDS011;6523;49.758;6.120;2022-12-18T14:26:29;37.57;;;19.17;;
12910;SDS011;6523;49.758;6.120;2022-12-18T14:28:56;38.37;;;19.63;;
12910;SDS011;6523;49.758;6.120;2022-12-18T14:31:27;34.00;;;18.67;;
12910;SDS011;6523;49.758;6.120;2022-12-18T14:33:54;34.97;;;19.93;;
12910;SDS011;6523;49.758;6.120;2022-12-18T14:36:21;37.20;;;21.47;;
12910;SDS011;6523;49.758;6.120;2022-12-18T14:38:51;36.27;;;20.20;;
12910;SDS011;6523;49.758;6.120;2022-12-18T14:41:24;39.97;;;19.43;;
12910;SDS011;6523;49.758;6.120;2022-12-18T14:43:51;37.57;;;20.20;;
12910;SDS011;6523;49.758;6.120;2022-12-18T14:46:29;39.30;;;20.67;;
12910;SDS011;6523;49.758;6.120;2022-12-18T14:49:44;39.33;;;20.50;;
12910;SDS011;6523;49.758;6.120;2022-12-18T14:51:57;36.80;;;20.07;;
12910;SDS011;6523;49.758;6.120;2022-12-18T14:54:26;34.37;;;20.83;;
12910;SDS011;6523;49.758;6.120;2022-12-18T14:57:04;35.70;;;19.17;;
12910;SDS011;6523;49.758;6.120;2022-12-18T14:59:38;38.80;;;20.73;;
12910;SDS011;6523;49.758;6.120;2022-12-18T15:04:43;33.93;;;19.97;;
12910;SDS011;6523;49.758;6.120;2022-12-18T15:07:12;37.97;;;21.13;;
12910;SDS011;6523;49.758;6.120;2022-12-18T15:09:42;37.37;;;19.57;;
12910;SDS011;6523;49.758;6.120;2022-12-18T15:12:22;38.90;;;20.87;;
12910;SDS011;6523;49.758;6.120;2022-12-18T15:14:52;38.90;;;21.37;;
12910;SDS011;6523;49.758;6.120;2022-12-18T15:17:19;39.07;;;20.30;;
12910;SDS011;6523;49.758;6.120;2022-12-18T15:19:47;42.07;;;21.90;;
12910;SDS011;6523;49.758;6.120;2022-12-18T15:24:54;35.27;;;21.23;;
12910;SDS011;6523;49.758;6.120;2022-12-18T15:27:29;38.63;;;21.83;;
12910;SDS011;6523;49.758;6.120;2022-12-18T15:32:32;40.17;;;21.97;;
12910;SDS011;6523;49.758;6.120;2022-12-18T15:35:41;39.67;;;21.47;;
12910;SDS011;6523;49.758;6.120;2022-12-18T15:37:49;39.60;;;20.90;;
12910;SDS011;6523;49.758;6.120;2022-12-18T15:40:20;39.83;;;20.90;;
12910;SDS011;6523;49.758;6.120;2022-12-18T15:42:47;36.03;;;21.47;;
12910;SDS011;6523;49.758;6.120;2022-12-18T15:45:34;34.87;;;20.77;;
12910;SDS011;6523;49.758;6.120;2022-12-18T15:48:00;42.17;;;21.93;;
12910;SDS011;6523;49.758;6.120;2022-12-18T15:50:25;38.90;;;21.73;;
12910;SDS011;6523;49.758;6.120;2022-12-18T15:52:52;40.20;;;21.47;;
12910;SDS011;6523;49.758;6.120;2022-12-18T15:55:20;39.87;;;21.03;;
12910;SDS011;6523;49.758;6.120;2022-12-18T15:58:06;39.33;;;21.10;;
12910;SDS011;6523;49.758;6.120;2022-12-18T16:00:33;39.17;;;20.53;;
12910;SDS011;6523;49.758;6.120;2022-12-18T16:03:00;37.80;;;20.23;;
12910;SDS011;6523;49.758;6.120;2022-12-18T16:05:26;39.87;;;22.07;;
12910;SDS011;6523;49.758;6.120;2022-12-18T16:07:53;36.17;;;20.40;;
12910;SDS011;6523;49.758;6.120;2022-12-18T16:10:18;41.30;;;20.77;;
12910;SDS011;6523;49.758;6.120;2022-12-18T16:12:44;46.77;;;23.00;;
12910;SDS011;6523;49.758;6.120;2022-12-18T16:15:11;39.73;;;22.13;;
12910;SDS011;6523;49.758;6.120;2022-12-18T16:17:39;44.03;;;22.70;;
12910;SDS011;6523;49.758;6.120;2022-12-18T16:20:05;45.37;;;24.10;;
12910;SDS011;6523;49.758;6.120;2022-12-18T16:22:36;42.47;;;23.40;;
12910;SDS011;6523;49.758;6.120;2022-12-18T16:25:02;46.90;;;23.07;;
12910;SDS011;6523;49.758;6.120;2022-12-18T16:27:30;44.30;;;23.23;;
12910;SDS011;6523;49.758;6.120;2022-12-18T16:29:55;42.90;;;22.80;;
12910;SDS011;6523;49.758;6.120;2022-12-18T16:32:21;45.00;;;22.23;;
12910;SDS011;6523;49.758;6.120;2022-12-18T16:34:47;38.93;;;21.33;;
12910;SDS011;6523;49.758;6.120;2022-12-18T16:37:13;42.47;;;21.57;;
12910;SDS011;6523;49.758;6.120;2022-12-18T16:39:40;38.87;;;21.60;;
12910;SDS011;6523;49.758;6.120;2022-12-18T16:44:39;42.30;;;21.57;;
12910;SDS011;6523;49.758;6.120;2022-12-18T16:47:05;44.60;;;22.57;;
12910;SDS011;6523;49.758;6.120;2022-12-18T16:49:30;44.63;;;22.03;;